createdAt,value
2018-05-04T00:00:54.879Z,61.49
2018-05-04T00:03:23.133Z,61.51
2018-05-04T00:05:52.181Z,61.89
2018-05-04T00:08:20.425Z,62.22
2018-05-04T00:10:48.690Z,62.13
2018-05-04T00:13:16.989Z,62.97
2018-05-04T00:15:45.243Z,62.95
2018-05-04T00:18:13.523Z,62.69
2018-05-04T00:20:41.805Z,62.55
2018-05-04T00:23:10.103Z,62.61
2018-05-04T00:25:38.359Z,62.70
2018-05-04T00:28:07.410Z,63.36
2018-05-04T00:30:35.672Z,63.84
2018-05-04T00:33:03.946Z,63.80
2018-05-04T00:35:32.204Z,63.88
2018-05-04T00:38:00.451Z,63.87
2018-05-04T00:40:28.708Z,64.40
2018-05-04T00:42:57.015Z,64.48
2018-05-04T00:45:26.054Z,64.50
2018-05-04T00:47:54.313Z,64.86
2018-05-04T00:50:23.355Z,65.42
2018-05-04T00:52:51.609Z,65.44
2018-05-04T00:55:20.638Z,65.50
2018-05-04T00:57:48.893Z,65.75
2018-05-04T01:00:17.957Z,65.64
2018-05-04T01:02:46.211Z,66.12
2018-05-04T01:05:14.539Z,65.97
2018-05-04T01:07:42.786Z,66.17
2018-05-04T01:10:11.051Z,66.24
2018-05-04T01:12:40.146Z,66.18
2018-05-04T01:15:08.391Z,65.99
2018-05-04T01:17:36.644Z,66.25
2018-05-04T01:20:05.677Z,66.40
2018-05-04T01:22:33.964Z,66.14
2018-05-04T01:25:02.245Z,66.24
2018-05-04T01:27:31.268Z,66.72
2018-05-04T01:29:59.546Z,66.21
2018-05-04T01:32:28.576Z,66.37
2018-05-04T01:34:56.860Z,66.70
2018-05-04T01:37:25.122Z,66.44
2018-05-04T01:39:53.391Z,66.74
2018-05-04T01:42:21.680Z,66.80
2018-05-04T01:44:49.935Z,66.86
2018-05-04T01:47:18.483Z,66.98
2018-05-04T01:49:46.748Z,67.31
2018-05-04T01:52:15.011Z,67.02
2018-05-04T01:54:43.265Z,67.60
2018-05-04T01:57:12.599Z,67.59
2018-05-04T01:59:40.853Z,67.83
2018-05-04T02:02:09.138Z,68.11
2018-05-04T02:04:37.408Z,68.21
2018-05-04T02:07:05.697Z,67.98
2018-05-04T02:09:34.047Z,68.37
2018-05-04T02:12:02.327Z,68.42
2018-05-04T02:14:31.375Z,68.43
2018-05-04T02:16:59.627Z,68.54
2018-05-04T02:19:28.647Z,68.74
2018-05-04T02:21:56.906Z,68.76
2018-05-04T02:24:25.165Z,68.89
2018-05-04T02:26:53.516Z,68.86
2018-05-04T02:29:21.777Z,68.81
2018-05-04T02:31:50.042Z,68.70
2018-05-04T02:34:18.319Z,68.97
2018-05-04T02:36:46.594Z,69.21
2018-05-04T02:39:14.901Z,69.35
2018-05-04T02:41:43.178Z,69.37
2018-05-04T02:44:11.466Z,69.50
2018-05-04T02:46:39.741Z,69.85
2018-05-04T02:49:08.001Z,70.17
2018-05-04T02:51:37.027Z,70.05
2018-05-04T02:54:06.248Z,70.29
2018-05-04T02:56:35.291Z,70.19
2018-05-04T02:59:03.657Z,69.81
2018-05-04T03:01:31.925Z,69.94
2018-05-04T03:04:00.960Z,70.36
2018-05-04T03:06:29.241Z,70.73
2018-05-04T03:08:57.630Z,70.74
2018-05-04T03:11:25.918Z,70.75
2018-05-04T03:13:54.160Z,70.60
2018-05-04T03:16:23.211Z,70.60
2018-05-04T03:18:51.497Z,70.58
2018-05-04T03:21:19.775Z,70.86
2018-05-04T03:23:48.793Z,71.09
2018-05-04T03:26:17.059Z,71.11
2018-05-04T03:28:45.391Z,72.06
2018-05-04T03:31:13.654Z,71.64
2018-05-04T03:33:42.691Z,71.95
2018-05-04T03:36:10.945Z,71.95
2018-05-04T03:38:39.192Z,71.80
2018-05-04T03:41:07.486Z,71.67
2018-05-04T03:43:35.750Z,72.43
2018-05-04T03:46:04.036Z,72.10
2018-05-04T03:48:32.306Z,71.94
2018-05-04T03:51:01.324Z,71.04
2018-05-04T03:53:29.593Z,71.30
2018-05-04T03:55:57.870Z,72.10
2018-05-04T03:58:43.744Z,71.74
2018-05-04T04:01:30.028Z,71.46
2018-05-04T04:04:14.245Z,71.81
2018-05-04T04:06:42.604Z,71.91
2018-05-04T04:09:10.932Z,72.26
2018-05-04T04:11:39.917Z,72.41
2018-05-04T04:14:08.207Z,73.18
2018-05-04T04:16:36.474Z,73.09
2018-05-04T04:19:04.733Z,73.26
2018-05-04T04:21:33.897Z,72.54
2018-05-04T04:24:02.166Z,73.02
2018-05-04T04:26:30.422Z,73.06
2018-05-04T04:28:59.472Z,72.83
2018-05-04T04:31:27.734Z,72.55
2018-05-04T04:33:56.755Z,72.49
2018-05-04T04:36:25.039Z,72.42
2018-05-04T04:38:53.355Z,72.41
2018-05-04T04:41:21.553Z,72.33
2018-05-04T04:43:49.834Z,71.50
2018-05-04T04:46:18.100Z,71.32
2018-05-04T04:48:46.359Z,71.42
2018-05-04T04:51:14.651Z,71.57
2018-05-04T04:53:43.012Z,71.23
2018-05-04T04:56:11.304Z,71.04
2018-05-04T04:58:39.587Z,71.12
2018-05-04T05:01:07.845Z,70.71
2018-05-04T05:03:36.087Z,70.27
2018-05-04T05:06:04.379Z,70.32
2018-05-04T05:08:32.648Z,69.27
2018-05-04T05:11:00.915Z,69.32
2018-05-04T05:13:29.245Z,68.65
2018-05-04T05:15:57.501Z,67.95
2018-05-04T05:18:25.775Z,67.37
2018-05-04T05:20:54.165Z,66.45
2018-05-04T05:23:22.434Z,65.94
2018-05-04T05:25:51.468Z,65.08
2018-05-04T05:28:19.754Z,64.50
2018-05-04T05:30:48.346Z,64.27
2018-05-04T05:33:16.721Z,62.63
2018-05-04T05:35:45.776Z,62.86
2018-05-04T05:38:14.195Z,62.06
2018-05-04T05:40:42.454Z,60.97
2018-05-04T05:43:10.773Z,60.61
2018-05-04T05:45:39.110Z,59.42
2018-05-04T05:48:07.381Z,58.62
2018-05-04T05:50:36.417Z,57.56
2018-05-04T05:53:04.697Z,57.31
2018-05-04T05:55:32.966Z,56.08
2018-05-04T05:58:02.054Z,55.49
2018-05-04T06:00:30.338Z,54.94
2018-05-04T06:02:58.610Z,54.50
2018-05-04T06:05:26.906Z,54.47
2018-05-04T06:07:55.198Z,52.99
2018-05-04T06:10:23.469Z,52.34
2018-05-04T06:12:51.740Z,51.61
2018-05-04T06:15:20.042Z,50.89
2018-05-04T06:17:48.291Z,49.64
2018-05-04T06:20:17.344Z,49.45
2018-05-04T06:22:47.123Z,48.29
2018-05-04T06:25:16.245Z,47.95
2018-05-04T06:27:44.503Z,46.93
2018-05-04T06:30:12.773Z,46.99
2018-05-04T06:32:41.099Z,46.79
2018-05-04T06:35:10.148Z,46.10
2018-05-04T06:37:38.399Z,45.49
2018-05-04T06:40:06.674Z,44.87
2018-05-04T06:42:34.964Z,44.81
2018-05-04T06:45:03.232Z,43.14
2018-05-04T06:47:31.503Z,42.57
2018-05-04T06:49:59.794Z,42.27
2018-05-04T06:52:28.059Z,40.79
2018-05-04T06:54:57.286Z,41.50
2018-05-04T06:57:25.567Z,40.16
2018-05-04T06:59:54.600Z,40.13
2018-05-04T07:02:22.917Z,38.81
2018-05-04T07:04:51.229Z,39.07
2018-05-04T07:07:19.471Z,38.34
2018-05-04T07:09:47.802Z,38.44
2018-05-04T07:12:17.315Z,37.94
2018-05-04T07:14:45.631Z,36.88
2018-05-04T07:17:14.744Z,36.09
2018-05-04T07:19:43.810Z,34.13
2018-05-04T07:22:12.069Z,34.64
2018-05-04T07:24:40.379Z,34.23
2018-05-04T07:27:08.662Z,34.10
2018-05-04T07:29:36.922Z,33.15
2018-05-04T07:32:05.947Z,33.57
2018-05-04T07:34:34.239Z,32.93
2018-05-04T07:37:02.513Z,33.00
2018-05-04T07:39:31.531Z,31.30
2018-05-04T07:41:59.847Z,31.32
2018-05-04T07:44:28.107Z,30.63
2018-05-04T07:46:56.376Z,31.06
2018-05-04T07:49:27.042Z,30.36
2018-05-04T07:51:55.371Z,30.18
2018-05-04T07:54:23.724Z,30.58
2018-05-04T07:56:52.743Z,30.49
2018-05-04T07:59:21.009Z,29.55
2018-05-04T08:01:50.064Z,26.98
2018-05-04T08:04:18.447Z,27.06
2018-05-04T08:06:46.718Z,25.91
2018-05-04T08:09:15.016Z,27.65
2018-05-04T08:11:43.395Z,27.92
2018-05-04T08:14:11.684Z,27.72
2018-05-04T08:16:39.980Z,25.80
2018-05-04T08:19:09.001Z,27.51
2018-05-04T08:21:37.278Z,27.30
2018-05-04T08:24:05.536Z,26.64
2018-05-04T08:26:34.572Z,26.56
2018-05-04T08:29:02.879Z,26.33
2018-05-04T08:31:31.172Z,26.05
2018-05-04T08:33:59.449Z,25.54
2018-05-04T08:36:27.718Z,26.22
2018-05-04T08:38:56.730Z,25.93
2018-05-04T08:41:25.018Z,26.82
2018-05-04T08:43:54.059Z,25.49
2018-05-04T08:46:22.330Z,25.60
2018-05-04T08:48:50.614Z,24.96
2018-05-04T08:51:19.622Z,25.36
2018-05-04T08:53:47.918Z,24.54
2018-05-04T08:56:17.016Z,24.26
2018-05-04T08:58:46.091Z,24.53
2018-05-04T09:01:14.351Z,24.98
2018-05-04T09:03:47.739Z,24.37
2018-05-04T09:06:16.012Z,25.50
2018-05-04T09:08:45.070Z,25.52
2018-05-04T09:11:13.455Z,25.20
2018-05-04T09:13:41.817Z,25.28
2018-05-04T09:16:10.075Z,24.58
2018-05-04T09:18:38.328Z,25.39
2018-05-04T09:21:06.602Z,25.24
2018-05-04T09:23:34.872Z,25.42
2018-05-04T09:26:03.136Z,25.06
2018-05-04T09:28:31.862Z,24.72
2018-05-04T09:31:00.146Z,23.98
2018-05-04T09:33:28.385Z,24.00
2018-05-04T09:35:56.653Z,24.39
2018-05-04T09:38:24.910Z,23.85
2018-05-04T09:40:53.208Z,24.22
2018-05-04T09:43:22.264Z,24.83
2018-05-04T09:45:50.533Z,24.01
2018-05-04T09:48:18.802Z,23.84
2018-05-04T09:50:47.079Z,25.69
2018-05-04T09:53:16.167Z,24.30
2018-05-04T09:55:44.447Z,23.56
2018-05-04T09:58:12.735Z,25.05
2018-05-04T10:00:41.066Z,23.36
2018-05-04T10:03:09.339Z,22.99
2018-05-04T10:05:38.373Z,24.07
2018-05-04T10:08:06.692Z,23.73
2018-05-04T10:10:34.974Z,22.92
2018-05-04T10:13:03.231Z,23.56
2018-05-04T10:15:32.254Z,23.60
2018-05-04T10:18:00.546Z,23.67
2018-05-04T10:20:28.811Z,24.51
2018-05-04T10:22:57.837Z,24.26
2018-05-04T10:25:26.109Z,23.44
2018-05-04T10:27:55.907Z,23.35
2018-05-04T10:30:24.178Z,22.57
2018-05-04T10:32:52.454Z,22.75
2018-05-04T10:35:20.748Z,22.45
2018-05-04T10:37:49.025Z,22.49
2018-05-04T10:40:17.310Z,21.99
2018-05-04T10:42:45.646Z,23.34
2018-05-04T10:45:13.998Z,23.45
2018-05-04T10:47:42.203Z,22.74
2018-05-04T10:50:11.577Z,22.19
2018-05-04T10:52:40.096Z,22.25
2018-05-04T10:55:08.367Z,21.66
2018-05-04T10:57:37.372Z,21.88
2018-05-04T11:00:05.643Z,21.41
2018-05-04T11:02:34.672Z,21.43
2018-05-04T11:05:02.988Z,23.20
2018-05-04T11:07:31.238Z,22.16
2018-05-04T11:10:00.350Z,22.24
2018-05-04T11:12:29.384Z,22.21
2018-05-04T11:14:57.659Z,22.24
2018-05-04T11:17:26.680Z,21.91
2018-05-04T11:19:54.952Z,22.24
2018-05-04T11:22:23.963Z,21.88
2018-05-04T11:24:52.997Z,22.19
2018-05-04T11:27:21.262Z,21.81
2018-05-04T11:29:50.325Z,21.62
2018-05-04T11:32:18.596Z,21.00
2018-05-04T11:34:46.879Z,20.36
2018-05-04T11:37:15.150Z,21.28
2018-05-04T11:39:43.441Z,20.42
2018-05-04T11:42:11.726Z,21.28
2018-05-04T11:44:40.001Z,21.71
2018-05-04T11:47:09.050Z,21.12
2018-05-04T11:49:37.370Z,21.53
2018-05-04T11:52:06.344Z,21.11
2018-05-04T11:54:34.601Z,22.83
2018-05-04T11:57:03.625Z,22.20
2018-05-04T11:59:32.635Z,21.48
2018-05-04T12:02:00.959Z,22.19
2018-05-04T12:04:29.226Z,21.92
2018-05-04T12:06:57.477Z,21.52
2018-05-04T12:09:26.616Z,20.89
2018-05-04T12:11:54.877Z,21.22
2018-05-04T12:14:23.892Z,21.42
2018-05-04T12:16:53.051Z,20.64
2018-05-04T12:19:21.310Z,21.43
2018-05-04T12:21:50.350Z,21.48
2018-05-04T12:24:18.784Z,21.46
2018-05-04T12:26:47.070Z,21.54
2018-05-04T12:29:15.343Z,21.53
2018-05-04T12:31:43.659Z,22.17
2018-05-04T12:34:12.686Z,22.31
2018-05-04T12:36:41.081Z,21.93
2018-05-04T12:39:09.359Z,22.21
2018-05-04T12:41:38.398Z,22.63
2018-05-04T12:44:06.685Z,21.33
2018-05-04T12:46:34.985Z,21.58
2018-05-04T12:49:03.250Z,21.19
2018-05-04T12:51:31.505Z,22.36
2018-05-04T12:53:59.854Z,21.78
2018-05-04T12:56:28.111Z,21.61
2018-05-04T12:58:57.139Z,21.63
2018-05-04T13:01:25.498Z,21.80
2018-05-04T13:03:54.506Z,22.09
2018-05-04T13:06:23.653Z,21.81
2018-05-04T13:08:52.772Z,21.80
2018-05-04T13:11:21.229Z,21.65
2018-05-04T13:13:49.643Z,21.43
2018-05-04T13:16:18.026Z,21.56
2018-05-04T13:18:46.329Z,22.69
2018-05-04T13:21:14.659Z,21.79
2018-05-04T13:23:43.529Z,22.67
2018-05-04T13:26:11.880Z,22.25
2018-05-04T13:28:40.141Z,22.08
2018-05-04T13:31:08.475Z,22.14
2018-05-04T13:33:37.574Z,22.81
2018-05-04T13:36:05.816Z,23.24
2018-05-04T13:38:34.217Z,22.42
2018-05-04T13:41:02.473Z,22.60
2018-05-04T13:43:30.746Z,23.73
2018-05-04T13:45:59.769Z,23.37
2018-05-04T13:48:28.041Z,22.48
2018-05-04T13:50:56.396Z,23.27
2018-05-04T13:53:24.590Z,23.30
2018-05-04T13:55:52.860Z,23.80
2018-05-04T13:58:21.099Z,22.99
2018-05-04T14:00:50.139Z,23.05
2018-05-04T14:03:18.386Z,23.54
2018-05-04T14:05:46.671Z,23.27
2018-05-04T14:08:15.049Z,22.81
2018-05-04T14:10:43.329Z,23.91
2018-05-04T14:13:12.117Z,22.79
2018-05-04T14:15:40.435Z,23.30
2018-05-04T14:18:08.720Z,23.45
2018-05-04T14:20:37.071Z,23.16
2018-05-04T14:23:05.354Z,23.77
2018-05-04T14:25:33.645Z,24.47
2018-05-04T14:28:01.933Z,24.30
2018-05-04T14:30:30.263Z,24.71
2018-05-04T14:32:58.616Z,25.36
2018-05-04T14:35:27.651Z,26.33
2018-05-04T14:37:55.941Z,26.28
2018-05-04T14:40:24.214Z,26.29
2018-05-04T14:42:54.373Z,25.75
2018-05-04T14:45:29.474Z,25.54
2018-05-04T14:47:57.732Z,25.79
2018-05-04T14:50:26.019Z,26.88
2018-05-04T14:52:54.289Z,25.95
2018-05-04T14:55:23.341Z,26.37
2018-05-04T14:57:52.481Z,26.50
2018-05-04T15:00:20.753Z,26.11
2018-05-04T15:02:49.054Z,25.98
2018-05-04T15:05:17.332Z,26.13
2018-05-04T15:07:45.680Z,26.58
2018-05-04T15:10:14.771Z,27.42
2018-05-04T15:12:43.052Z,27.47
2018-05-04T15:15:11.555Z,26.60
2018-05-04T15:17:39.817Z,26.96
2018-05-04T15:20:08.084Z,27.08
2018-05-04T15:22:36.338Z,26.71
2018-05-04T15:25:04.708Z,26.25
2018-05-04T15:27:32.947Z,26.93
2018-05-04T15:30:01.998Z,27.35
2018-05-04T15:32:30.262Z,27.47
2018-05-04T15:34:58.535Z,27.79
2018-05-04T15:37:27.598Z,28.26
2018-05-04T15:39:55.933Z,28.91
2018-05-04T15:42:24.131Z,28.67
2018-05-04T15:44:53.345Z,28.23
2018-05-04T15:47:22.378Z,28.39
2018-05-04T15:49:50.622Z,29.00
2018-05-04T15:52:19.771Z,28.68
2018-05-04T15:54:48.046Z,29.18
2018-05-04T15:57:17.099Z,28.62
2018-05-04T15:59:45.425Z,28.97
2018-05-04T16:02:13.729Z,28.46
2018-05-04T16:04:42.767Z,29.34
2018-05-04T16:07:11.076Z,28.74
2018-05-04T16:09:39.329Z,29.73
2018-05-04T16:12:07.649Z,29.66
2018-05-04T16:14:35.949Z,30.37
2018-05-04T16:17:04.217Z,30.08
2018-05-04T16:19:32.775Z,30.90
2018-05-04T16:22:02.002Z,30.77
2018-05-04T16:24:30.229Z,31.92
2018-05-04T16:26:58.549Z,32.00
2018-05-04T16:29:26.881Z,30.97
2018-05-04T16:31:55.139Z,31.46
2018-05-04T16:34:23.400Z,31.72
2018-05-04T16:36:51.667Z,31.41
2018-05-04T16:39:19.948Z,31.89
2018-05-04T16:41:48.250Z,31.90
2018-05-04T16:44:16.534Z,31.49
2018-05-04T16:46:50.354Z,31.16
2018-05-04T16:49:24.027Z,31.60
2018-05-04T16:51:52.298Z,30.99
2018-05-04T16:54:20.584Z,31.37
2018-05-04T16:56:48.884Z,31.83
2018-05-04T16:59:17.146Z,32.64
2018-05-04T17:01:45.443Z,32.70
2018-05-04T17:04:13.726Z,32.35
2018-05-04T17:06:42.001Z,32.12
2018-05-04T17:09:10.300Z,32.65
2018-05-04T17:11:39.319Z,32.32
2018-05-04T17:14:07.592Z,32.73
2018-05-04T17:16:35.882Z,32.64
2018-05-04T17:19:04.163Z,33.07
2018-05-04T17:21:32.451Z,33.00
2018-05-04T17:24:00.739Z,33.10
2018-05-04T17:26:29.028Z,33.91
2018-05-04T17:28:58.074Z,34.29
2018-05-04T17:31:26.332Z,34.06
2018-05-04T17:33:54.602Z,34.40
2018-05-04T17:36:23.655Z,34.32
2018-05-04T17:38:51.917Z,34.20
2018-05-04T17:41:20.176Z,33.53
2018-05-04T17:43:48.442Z,33.42
2018-05-04T17:46:16.703Z,33.44
2018-05-04T17:48:45.031Z,33.73
2018-05-04T17:51:13.295Z,33.49
2018-05-04T17:53:41.604Z,33.65
2018-05-04T17:56:09.896Z,34.09
2018-05-04T17:58:38.144Z,34.46
2018-05-04T18:01:06.392Z,34.16
2018-05-04T18:03:34.663Z,34.79
2018-05-04T18:06:02.936Z,34.26
2018-05-04T18:08:31.215Z,34.93
2018-05-04T18:10:59.483Z,34.33
2018-05-04T18:13:27.736Z,35.10
2018-05-04T18:15:55.993Z,35.54
2018-05-04T18:18:24.254Z,35.15
2018-05-04T18:20:52.547Z,35.51
2018-05-04T18:23:21.553Z,35.65
2018-05-04T18:25:50.595Z,36.13
2018-05-04T18:28:18.915Z,36.73
2018-05-04T18:30:47.244Z,35.94
2018-05-04T18:33:15.557Z,35.92
2018-05-04T18:35:43.848Z,36.30
2018-05-04T18:38:12.115Z,36.82
2018-05-04T18:40:40.433Z,36.48
2018-05-04T18:43:08.696Z,36.93
2018-05-04T18:45:36.980Z,36.78
2018-05-04T18:48:05.264Z,37.73
2018-05-04T18:50:34.329Z,37.71
2018-05-04T18:53:02.587Z,36.96
2018-05-04T18:55:30.872Z,37.10
2018-05-04T18:57:59.134Z,37.79
2018-05-04T19:00:27.616Z,37.88
2018-05-04T19:03:01.400Z,37.77
2018-05-04T19:05:29.653Z,37.54
2018-05-04T19:07:58.041Z,38.36
2018-05-04T19:10:26.222Z,38.88
2018-05-04T19:12:55.247Z,38.60
2018-05-04T19:15:23.505Z,38.85
2018-05-04T19:17:51.794Z,39.17
2018-05-04T19:20:20.054Z,39.40
2018-05-04T19:22:48.329Z,39.66
2018-05-04T19:25:16.619Z,39.24
2018-05-04T19:27:44.934Z,38.83
2018-05-04T19:30:13.191Z,38.97
2018-05-04T19:32:41.472Z,39.69
2018-05-04T19:35:09.725Z,39.62
2018-05-04T19:37:37.984Z,40.26
2018-05-04T19:40:06.256Z,40.31
2018-05-04T19:42:34.505Z,40.35
2018-05-04T19:45:03.528Z,40.54
2018-05-04T19:47:31.796Z,41.24
2018-05-04T19:50:00.866Z,41.18
2018-05-04T19:52:29.158Z,41.36
2018-05-04T19:54:57.418Z,41.43
2018-05-04T19:57:25.699Z,41.13
2018-05-04T19:59:54.713Z,41.89
2018-05-04T20:02:22.979Z,41.86
2018-05-04T20:04:52.022Z,41.69
2018-05-04T20:07:20.267Z,42.26
2018-05-04T20:09:49.317Z,42.36
2018-05-04T20:12:17.601Z,41.83
2018-05-04T20:14:45.884Z,42.95
2018-05-04T20:17:14.151Z,41.76
2018-05-04T20:19:43.186Z,42.14
2018-05-04T20:22:11.473Z,42.64
2018-05-04T20:24:39.762Z,42.74
2018-05-04T20:27:08.057Z,43.02
2018-05-04T20:29:36.299Z,42.15
2018-05-04T20:32:04.612Z,42.08
2018-05-04T20:34:33.738Z,42.12
2018-05-04T20:37:01.988Z,42.15
2018-05-04T20:39:30.279Z,42.57
2018-05-04T20:41:58.523Z,42.83
2018-05-04T20:44:26.788Z,42.69
2018-05-04T20:46:55.833Z,43.07
2018-05-04T20:49:24.101Z,43.23
2018-05-04T20:51:52.357Z,42.95
2018-05-04T20:54:21.409Z,43.97
2018-05-04T20:56:49.655Z,43.22
2018-05-04T20:59:19.492Z,43.45
2018-05-04T21:01:48.528Z,43.52
2018-05-04T21:04:16.822Z,43.79
2018-05-04T21:06:45.096Z,43.89
2018-05-04T21:09:14.127Z,43.60
2018-05-04T21:11:42.479Z,43.40
2018-05-04T21:14:11.551Z,43.92
2018-05-04T21:16:39.820Z,44.27
2018-05-04T21:19:08.072Z,44.37
2018-05-04T21:21:37.095Z,44.36
2018-05-04T21:24:05.371Z,44.27
2018-05-04T21:26:33.655Z,44.41
2018-05-04T21:29:01.905Z,44.77
2018-05-04T21:31:30.167Z,45.11
2018-05-04T21:33:58.435Z,44.83
2018-05-04T21:36:27.467Z,45.02
2018-05-04T21:38:55.881Z,45.76
2018-05-04T21:41:24.156Z,45.77
2018-05-04T21:43:52.351Z,46.04
2018-05-04T21:46:20.626Z,45.99
2018-05-04T21:48:48.894Z,46.71
2018-05-04T21:51:17.934Z,46.93
2018-05-04T21:53:46.223Z,46.72
2018-05-04T21:56:14.508Z,46.92
2018-05-04T21:58:42.780Z,47.30
2018-05-04T22:01:11.050Z,47.67
2018-05-04T22:03:40.059Z,48.04
2018-05-04T22:06:09.113Z,47.84
2018-05-04T22:08:37.404Z,48.18
2018-05-04T22:11:05.689Z,48.25
2018-05-04T22:13:33.934Z,48.46
2018-05-04T22:16:02.982Z,48.98
2018-05-04T22:18:31.232Z,49.17
2018-05-04T22:21:00.261Z,49.39
2018-05-04T22:23:28.555Z,49.68
2018-05-04T22:25:56.795Z,49.98
2018-05-04T22:28:25.065Z,50.83
2018-05-04T22:30:53.327Z,50.45
2018-05-04T22:33:21.621Z,50.71
2018-05-04T22:35:49.894Z,51.28
2018-05-04T22:38:19.008Z,50.66
2018-05-04T22:40:47.278Z,50.42
2018-05-04T22:43:16.314Z,51.17
2018-05-04T22:45:44.584Z,51.23
2018-05-04T22:48:12.850Z,52.32
2018-05-04T22:50:41.895Z,52.02
2018-05-04T22:53:10.191Z,51.90
2018-05-04T22:55:38.453Z,52.13
2018-05-04T22:58:07.490Z,52.63
2018-05-04T23:00:35.745Z,52.26
2018-05-04T23:03:04.783Z,52.22
2018-05-04T23:05:33.043Z,52.86
2018-05-04T23:08:02.156Z,53.07
2018-05-04T23:10:31.194Z,53.39
2018-05-04T23:12:59.447Z,53.44
2018-05-04T23:15:28.480Z,52.72
2018-05-04T23:17:56.757Z,52.57
2018-05-04T23:20:25.770Z,53.21
2018-05-04T23:22:54.064Z,53.04
2018-05-04T23:25:23.087Z,53.56
2018-05-04T23:27:51.358Z,53.47
2018-05-04T23:30:20.400Z,53.18
2018-05-04T23:32:48.661Z,53.03
2018-05-04T23:35:16.919Z,53.00
2018-05-04T23:37:45.205Z,53.07
2018-05-04T23:40:14.334Z,53.21
2018-05-04T23:42:43.391Z,53.18
2018-05-04T23:45:11.652Z,53.81
2018-05-04T23:47:39.896Z,53.56
2018-05-04T23:50:09.456Z,53.44
2018-05-04T23:52:38.485Z,53.47
2018-05-04T23:55:06.739Z,53.49
2018-05-04T23:57:35.769Z,53.94
